createdAt,value
2023-03-30T00:01:57.881Z,9.47
2023-03-30T00:04:27.332Z,9.53
2023-03-30T00:06:55.498Z,9.54
2023-03-30T00:09:23.450Z,9.53
2023-03-30T00:11:51.339Z,9.57
2023-03-30T00:14:21.463Z,9.58
2023-03-30T00:16:51.072Z,9.58
2023-03-30T00:19:19.016Z,9.59
2023-03-30T00:21:47.387Z,9.58
2023-03-30T00:24:15.496Z,9.63
2023-03-30T00:26:43.399Z,9.62
2023-03-30T00:29:11.604Z,9.63
2023-03-30T00:31:39.506Z,9.65
2023-03-30T00:34:09.679Z,9.69
2023-03-30T00:36:37.544Z,9.66
2023-03-30T00:39:06.650Z,9.68
2023-03-30T00:41:34.625Z,9.65
2023-03-30T00:44:04.310Z,9.65
2023-03-30T00:46:33.284Z,9.67
2023-03-30T00:49:05.350Z,9.68
2023-03-30T00:51:36.738Z,9.68
2023-03-30T00:54:08.120Z,9.67
2023-03-30T00:56:36.083Z,9.72
2023-03-30T00:59:04.255Z,9.73
2023-03-30T01:01:38.639Z,9.74
2023-03-30T01:04:08.903Z,9.77
2023-03-30T01:06:40.479Z,9.75
2023-03-30T01:09:09.512Z,9.73
2023-03-30T01:11:37.621Z,9.77
2023-03-30T01:14:07.845Z,9.74
2023-03-30T01:16:44.225Z,9.73
2023-03-30T01:19:37.064Z,9.67
2023-03-30T01:22:20.738Z,9.77
2023-03-30T01:25:21.303Z,9.76
2023-03-30T01:28:08.986Z,9.70
2023-03-30T01:30:47.016Z,9.72
2023-03-30T01:33:30.693Z,9.66
2023-03-30T01:36:25.135Z,9.78
2023-03-30T01:39:15.043Z,9.78
2023-03-30T01:41:51.700Z,9.70
2023-03-30T01:44:24.214Z,9.69
2023-03-30T01:46:54.007Z,9.69
2023-03-30T01:49:25.572Z,9.73
2023-03-30T01:52:01.225Z,9.74
2023-03-30T01:54:33.418Z,9.72
2023-03-30T01:57:05.664Z,9.70
2023-03-30T01:59:37.290Z,9.71
2023-03-30T02:02:07.285Z,9.68
2023-03-30T02:04:39.923Z,9.57
2023-03-30T02:07:10.118Z,9.48
2023-03-30T02:09:41.450Z,9.70
2023-03-30T02:12:11.192Z,9.66
2023-03-30T02:14:41.085Z,9.74
2023-03-30T02:17:12.717Z,9.68
2023-03-30T02:19:42.120Z,9.70
2023-03-30T02:22:10.043Z,9.71
2023-03-30T02:24:39.446Z,9.71
2023-03-30T02:27:07.957Z,9.68
2023-03-30T02:29:37.154Z,9.73
2023-03-30T02:32:05.361Z,9.72
2023-03-30T02:34:47.779Z,9.72
2023-03-30T02:37:33.995Z,9.77
2023-03-30T02:40:13.490Z,9.78
2023-03-30T02:42:53.409Z,9.78
2023-03-30T02:45:31.454Z,9.84
2023-03-30T02:48:13.680Z,9.80
2023-03-30T02:50:45.737Z,9.79
2023-03-30T02:53:19.040Z,9.71
2023-03-30T02:55:52.656Z,9.73
2023-03-30T02:58:25.532Z,9.59
2023-03-30T03:00:57.431Z,9.65
2023-03-30T03:03:31.772Z,9.60
2023-03-30T03:06:02.638Z,9.54
2023-03-30T03:08:35.248Z,9.54
2023-03-30T03:11:05.163Z,9.42
2023-03-30T03:13:33.244Z,9.41
2023-03-30T03:16:02.821Z,9.39
2023-03-30T03:18:32.412Z,9.52
2023-03-30T03:21:00.435Z,9.60
2023-03-30T03:23:28.435Z,9.47
2023-03-30T03:25:56.322Z,9.62
2023-03-30T03:28:25.594Z,9.62
2023-03-30T03:30:54.308Z,9.64
2023-03-30T03:33:22.665Z,9.62
2023-03-30T03:35:54.269Z,9.69
2023-03-30T03:38:22.885Z,9.74
2023-03-30T03:40:51.949Z,9.77
2023-03-30T03:43:20.171Z,9.74
2023-03-30T03:45:50.319Z,9.74
2023-03-30T03:48:19.703Z,9.62
2023-03-30T03:50:51.056Z,9.80
2023-03-30T03:53:18.969Z,9.99
2023-03-30T03:55:47.144Z,10.06
2023-03-30T03:58:15.243Z,9.96
2023-03-30T04:00:43.236Z,9.98
2023-03-30T04:03:12.604Z,10.01
2023-03-30T04:05:41.758Z,9.98
2023-03-30T04:08:11.177Z,9.95
2023-03-30T04:10:39.546Z,9.99
2023-03-30T04:13:07.532Z,9.97
2023-03-30T04:15:35.569Z,9.92
2023-03-30T04:18:05.415Z,9.91
2023-03-30T04:20:34.858Z,9.92
2023-03-30T04:23:02.826Z,9.93
2023-03-30T04:25:31.204Z,9.92
2023-03-30T04:27:59.096Z,9.95
2023-03-30T04:30:30.532Z,9.95
2023-03-30T04:33:04.680Z,9.97
2023-03-30T04:35:35.323Z,9.92
2023-03-30T04:38:03.397Z,9.87
2023-03-30T04:40:31.374Z,9.97
2023-03-30T04:43:02.689Z,9.90
2023-03-30T04:45:30.852Z,9.94
2023-03-30T04:47:58.919Z,9.96
2023-03-30T04:50:27.199Z,9.99
2023-03-30T04:52:56.500Z,10.02
2023-03-30T04:55:24.386Z,10.00
2023-03-30T04:57:52.265Z,10.07
2023-03-30T05:00:21.291Z,10.10
2023-03-30T05:02:49.259Z,10.18
2023-03-30T05:05:17.418Z,10.23
2023-03-30T05:07:46.556Z,10.18
2023-03-30T05:10:16.064Z,10.20
2023-03-30T05:12:43.964Z,10.19
2023-03-30T05:15:12.321Z,10.23
2023-03-30T05:17:40.326Z,10.17
2023-03-30T05:20:10.183Z,10.27
2023-03-30T05:22:38.160Z,10.28
2023-03-30T05:25:07.265Z,10.27
2023-03-30T05:27:36.623Z,10.41
2023-03-30T05:30:05.143Z,10.37
2023-03-30T05:32:33.073Z,10.22
2023-03-30T05:35:01.405Z,10.33
2023-03-30T05:37:29.295Z,10.37
2023-03-30T05:39:57.674Z,10.40
2023-03-30T05:42:25.738Z,10.33
2023-03-30T05:44:54.991Z,10.19
2023-03-30T05:47:23.050Z,10.35
2023-03-30T05:49:51.043Z,10.27
2023-03-30T05:52:18.918Z,10.26
2023-03-30T05:54:46.855Z,10.42
2023-03-30T05:57:14.783Z,10.41
2023-03-30T05:59:42.787Z,10.42
2023-03-30T06:02:13.212Z,10.45
2023-03-30T06:04:41.303Z,10.60
2023-03-30T06:07:09.301Z,10.58
2023-03-30T06:09:37.504Z,10.60
2023-03-30T06:12:06.051Z,10.64
2023-03-30T06:14:33.978Z,10.62
2023-03-30T06:17:02.019Z,10.68
2023-03-30T06:19:31.348Z,10.86
2023-03-30T06:21:59.297Z,10.89
2023-03-30T06:24:27.251Z,10.96
2023-03-30T06:26:55.967Z,11.03
2023-03-30T06:29:24.160Z,11.00
2023-03-30T06:31:52.337Z,11.05
2023-03-30T06:34:20.558Z,11.07
2023-03-30T06:36:50.722Z,11.15
2023-03-30T06:39:18.673Z,11.29
2023-03-30T06:41:46.585Z,11.32
2023-03-30T06:44:15.676Z,11.23
2023-03-30T06:46:43.707Z,11.41
2023-03-30T06:49:13.204Z,11.40
2023-03-30T06:51:42.060Z,11.61
2023-03-30T06:54:11.857Z,11.68
2023-03-30T06:56:40.362Z,11.80
2023-03-30T06:59:08.382Z,11.79
2023-03-30T07:01:37.196Z,11.94
2023-03-30T07:04:05.646Z,11.88
2023-03-30T07:06:33.589Z,11.84
2023-03-30T07:09:01.964Z,11.88
2023-03-30T07:11:31.304Z,11.96
2023-03-30T07:14:01.208Z,12.01
2023-03-30T07:16:29.305Z,12.04
2023-03-30T07:18:57.796Z,11.96
2023-03-30T07:21:25.757Z,11.85
2023-03-30T07:23:53.662Z,11.99
2023-03-30T07:26:21.534Z,12.00
2023-03-30T07:28:50.929Z,12.02
2023-03-30T07:31:20.218Z,11.89
2023-03-30T07:33:48.957Z,11.83
2023-03-30T07:36:16.995Z,11.74
2023-03-30T07:38:44.900Z,11.90
2023-03-30T07:41:14.584Z,11.83
2023-03-30T07:43:43.400Z,11.97
2023-03-30T07:46:13.604Z,12.07
2023-03-30T07:48:42.073Z,12.09
2023-03-30T07:51:11.133Z,12.25
2023-03-30T07:53:39.740Z,12.07
2023-03-30T07:56:08.228Z,12.22
2023-03-30T07:58:37.113Z,12.40
2023-03-30T08:01:05.424Z,12.50
2023-03-30T08:03:35.139Z,12.51
2023-03-30T08:06:05.613Z,12.49
2023-03-30T08:08:34.452Z,12.46
2023-03-30T08:11:02.735Z,12.32
2023-03-30T08:13:32.846Z,12.45
2023-03-30T08:16:01.306Z,12.44
2023-03-30T08:18:29.381Z,12.34
2023-03-30T08:20:58.716Z,12.39
2023-03-30T08:23:27.086Z,12.45
2023-03-30T08:25:58.103Z,12.38
2023-03-30T08:28:26.809Z,12.41
2023-03-30T08:30:55.416Z,12.46
2023-03-30T08:33:24.229Z,12.52
2023-03-30T08:35:52.577Z,12.86
2023-03-30T08:38:21.930Z,13.11
2023-03-30T08:40:51.126Z,13.32
2023-03-30T08:43:43.143Z,12.99
2023-03-30T08:46:14.756Z,13.53
2023-03-30T08:48:43.143Z,13.53
2023-03-30T08:51:20.581Z,13.52
2023-03-30T08:53:52.073Z,13.69
2023-03-30T08:56:22.922Z,13.92
2023-03-30T08:58:57.548Z,13.70
2023-03-30T09:01:28.183Z,13.80
2023-03-30T09:04:04.597Z,13.84
2023-03-30T09:06:46.013Z,13.70
2023-03-30T09:09:18.696Z,13.98
2023-03-30T09:11:49.576Z,13.92
2023-03-30T09:14:20.872Z,13.98
2023-03-30T09:16:52.984Z,13.78
2023-03-30T09:19:25.131Z,13.69
2023-03-30T09:21:55.454Z,13.72
2023-03-30T09:24:26.737Z,13.81
2023-03-30T09:27:00.268Z,13.78
2023-03-30T09:29:30.171Z,13.82
2023-03-30T09:32:05.874Z,13.98
2023-03-30T09:34:40.313Z,14.13
2023-03-30T09:37:11.231Z,14.32
2023-03-30T09:39:41.385Z,14.40
2023-03-30T09:42:14.916Z,14.69
2023-03-30T09:44:47.374Z,14.54
2023-03-30T09:47:23.101Z,14.61
2023-03-30T09:49:57.002Z,14.61
2023-03-30T09:52:26.855Z,14.44
2023-03-30T09:54:57.381Z,14.59
2023-03-30T09:57:28.131Z,14.59
2023-03-30T09:59:56.920Z,14.62
2023-03-30T10:02:27.815Z,14.57
2023-03-30T10:05:04.439Z,14.56
2023-03-30T10:07:35.217Z,14.48
2023-03-30T10:10:16.186Z,14.45
2023-03-30T10:12:44.190Z,14.60
2023-03-30T10:15:17.110Z,14.62
2023-03-30T10:17:47.180Z,14.91
2023-03-30T10:20:27.892Z,15.01
2023-03-30T10:22:57.200Z,14.71
2023-03-30T10:25:29.713Z,14.82
2023-03-30T10:28:03.039Z,14.70
2023-03-30T10:30:31.726Z,14.60
2023-03-30T10:33:01.273Z,14.50
2023-03-30T10:35:34.470Z,14.55
2023-03-30T10:38:03.272Z,14.53
2023-03-30T10:40:36.791Z,14.49
2023-03-30T10:43:06.590Z,14.53
2023-03-30T10:45:38.034Z,14.55
2023-03-30T10:48:20.413Z,14.63
2023-03-30T10:50:57.546Z,14.72
2023-03-30T10:53:37.240Z,14.90
2023-03-30T10:56:14.684Z,15.03
2023-03-30T10:58:53.505Z,15.19
2023-03-30T11:01:29.495Z,15.22
2023-03-30T11:04:12.402Z,15.35
2023-03-30T11:06:49.963Z,15.32
2023-03-30T11:09:23.094Z,15.36
2023-03-30T11:11:54.942Z,15.33
2023-03-30T11:14:24.997Z,15.21
2023-03-30T11:17:00.126Z,15.30
2023-03-30T11:19:35.109Z,15.40
2023-03-30T11:22:08.782Z,15.44
2023-03-30T11:24:36.940Z,15.26
2023-03-30T11:27:12.115Z,15.18
2023-03-30T11:29:44.790Z,15.18
2023-03-30T11:32:21.962Z,15.11
2023-03-30T11:35:02.956Z,15.03
2023-03-30T11:37:35.461Z,14.92
2023-03-30T11:40:19.092Z,14.88
2023-03-30T11:43:15.035Z,14.90
2023-03-30T11:45:57.547Z,14.86
2023-03-30T11:52:29.203Z,14.68
2023-03-30T11:55:29.916Z,14.10
2023-03-30T11:58:14.712Z,13.85
2023-03-30T12:01:02.338Z,13.45
2023-03-30T12:03:48.348Z,13.40
2023-03-30T12:06:41.492Z,13.55
2023-03-30T12:09:34.115Z,13.92
2023-03-30T12:12:12.076Z,13.50
2023-03-30T12:15:11.518Z,14.09
2023-03-30T12:17:54.591Z,13.93
2023-03-30T12:20:35.867Z,13.88
2023-03-30T12:23:43.648Z,13.85
2023-03-30T12:26:28.126Z,13.84
2023-03-30T12:32:10.157Z,13.89
2023-03-30T12:34:47.213Z,13.90
2023-03-30T12:37:19.353Z,14.01
2023-03-30T12:39:49.974Z,14.29
2023-03-30T12:42:27.346Z,14.49
2023-03-30T12:45:11.157Z,14.63
2023-03-30T12:47:54.952Z,14.57
2023-03-30T12:50:32.969Z,14.39
2023-03-30T12:53:27.400Z,14.26
2023-03-30T12:56:02.084Z,14.19
2023-03-30T12:58:59.416Z,14.10
2023-03-30T13:01:36.554Z,13.87
2023-03-30T13:04:08.723Z,13.79
2023-03-30T13:06:39.201Z,13.62
2023-03-30T13:09:35.505Z,13.67
2023-03-30T13:12:34.634Z,13.92
2023-03-30T13:15:06.929Z,14.42
2023-03-30T13:17:58.246Z,14.35
2023-03-30T13:20:32.868Z,14.48
2023-03-30T13:23:07.233Z,14.59
2023-03-30T13:25:40.175Z,14.67
2023-03-30T13:28:45.477Z,15.04
2023-03-30T13:31:25.223Z,15.06
2023-03-30T13:33:58.717Z,14.88
2023-03-30T13:36:29.620Z,14.83
2023-03-30T13:39:05.684Z,14.72
2023-03-30T13:41:41.483Z,14.59
2023-03-30T13:44:21.928Z,14.63
2023-03-30T13:46:53.242Z,14.60
2023-03-30T13:49:35.736Z,14.57
2023-03-30T13:52:07.189Z,14.67
2023-03-30T13:54:36.020Z,14.72
2023-03-30T13:57:09.614Z,14.72
2023-03-30T13:59:40.269Z,14.76
2023-03-30T14:02:09.233Z,14.67
2023-03-30T14:04:39.118Z,14.66
2023-03-30T14:07:16.199Z,14.61
2023-03-30T14:09:44.930Z,14.57
2023-03-30T14:12:14.038Z,14.71
2023-03-30T14:14:47.187Z,15.09
2023-03-30T14:17:20.046Z,15.36
2023-03-30T14:19:58.516Z,15.74
2023-03-30T14:22:29.115Z,15.98
2023-03-30T14:24:58.925Z,16.13
2023-03-30T14:27:27.161Z,16.24
2023-03-30T14:29:55.246Z,16.07
2023-03-30T14:32:25.181Z,15.93
2023-03-30T14:34:54.640Z,16.03
2023-03-30T14:37:24.312Z,15.43
2023-03-30T14:39:54.981Z,15.29
2023-03-30T14:42:25.639Z,15.16
2023-03-30T14:44:58.248Z,15.20
2023-03-30T14:47:27.630Z,15.11
2023-03-30T14:49:58.250Z,14.96
2023-03-30T14:52:30.119Z,14.91
2023-03-30T14:55:07.236Z,14.96
2023-03-30T14:57:38.937Z,14.99
2023-03-30T15:00:20.591Z,15.16
2023-03-30T15:02:50.917Z,15.78
2023-03-30T15:05:19.468Z,16.05
2023-03-30T15:07:49.391Z,16.59
2023-03-30T15:10:27.043Z,16.52
2023-03-30T15:12:57.069Z,16.25
2023-03-30T15:15:27.872Z,16.24
2023-03-30T15:17:56.550Z,15.86
2023-03-30T15:20:27.152Z,15.81
2023-03-30T15:22:55.292Z,16.17
2023-03-30T15:25:31.401Z,16.59
2023-03-30T15:28:02.166Z,15.70
2023-03-30T15:30:32.517Z,15.13
2023-03-30T15:33:00.727Z,15.16
2023-03-30T15:35:30.274Z,15.06
2023-03-30T15:37:59.923Z,15.06
2023-03-30T15:40:34.798Z,15.20
2023-03-30T15:43:17.039Z,16.09
2023-03-30T15:45:53.607Z,16.78
2023-03-30T15:48:24.373Z,17.04
2023-03-30T15:50:56.837Z,16.71
2023-03-30T15:53:34.349Z,16.28
2023-03-30T15:56:04.195Z,15.54
2023-03-30T15:58:32.098Z,15.52
2023-03-30T16:01:00.130Z,16.07
2023-03-30T16:03:40.723Z,16.32
2023-03-30T16:06:12.883Z,16.55
2023-03-30T16:08:43.567Z,16.20
2023-03-30T16:11:15.309Z,16.46
2023-03-30T16:13:43.755Z,16.15
2023-03-30T16:16:13.984Z,17.25
2023-03-30T16:18:42.936Z,17.16
2023-03-30T16:21:12.470Z,16.78
2023-03-30T16:23:40.805Z,17.22
2023-03-30T16:26:09.762Z,16.41
2023-03-30T16:28:40.797Z,15.75
2023-03-30T16:31:14.262Z,14.88
2023-03-30T16:33:43.418Z,14.98
2023-03-30T16:36:14.923Z,14.82
2023-03-30T16:38:42.945Z,14.89
2023-03-30T16:41:12.980Z,14.70
2023-03-30T16:43:42.330Z,14.73
2023-03-30T16:46:12.311Z,14.53
2023-03-30T16:48:40.516Z,14.39
2023-03-30T16:51:08.731Z,14.43
2023-03-30T16:53:36.664Z,14.24
2023-03-30T16:56:04.903Z,14.26
2023-03-30T16:58:32.796Z,14.07
2023-03-30T17:01:04.677Z,14.02
2023-03-30T17:03:32.841Z,13.90
2023-03-30T17:06:00.747Z,14.02
2023-03-30T17:08:29.320Z,13.98
2023-03-30T17:11:00.934Z,13.94
2023-03-30T17:13:29.068Z,13.73
2023-03-30T17:15:58.406Z,13.76
2023-03-30T17:18:28.502Z,13.43
2023-03-30T17:20:57.496Z,13.30
2023-03-30T17:23:27.126Z,13.16
2023-03-30T17:25:56.388Z,13.14
2023-03-30T17:28:25.598Z,12.98
2023-03-30T17:30:55.054Z,13.00
2023-03-30T17:33:23.539Z,12.69
2023-03-30T17:35:55.361Z,13.07
2023-03-30T17:38:23.451Z,12.70
2023-03-30T17:40:51.466Z,12.79
2023-03-30T17:43:19.409Z,12.77
2023-03-30T17:45:47.458Z,12.60
2023-03-30T17:48:17.553Z,12.68
2023-03-30T17:50:47.917Z,12.84
2023-03-30T17:53:18.082Z,12.77
2023-03-30T17:55:47.031Z,12.88
2023-03-30T17:58:18.198Z,12.82
2023-03-30T18:00:47.392Z,12.77
2023-03-30T18:03:15.874Z,12.81
2023-03-30T18:05:44.731Z,12.75
2023-03-30T18:08:17.231Z,12.83
2023-03-30T18:10:48.041Z,12.69
2023-03-30T18:13:16.641Z,12.61
2023-03-30T18:15:45.949Z,12.73
2023-03-30T18:18:22.448Z,12.63
2023-03-30T18:20:51.305Z,12.62
2023-03-30T18:23:19.696Z,12.69
2023-03-30T18:25:49.373Z,12.63
2023-03-30T18:28:18.742Z,12.55
2023-03-30T18:30:46.854Z,12.60
2023-03-30T18:33:16.145Z,12.41
2023-03-30T18:35:44.757Z,12.48
2023-03-30T18:38:13.568Z,12.47
2023-03-30T18:40:44.592Z,12.49
2023-03-30T18:43:14.182Z,12.37
2023-03-30T18:45:43.316Z,12.37
2023-03-30T18:48:13.748Z,12.39
2023-03-30T18:50:43.263Z,12.34
2023-03-30T18:53:13.214Z,12.42
2023-03-30T18:55:42.822Z,12.40
2023-03-30T18:58:15.404Z,12.37
2023-03-30T19:00:43.938Z,12.39
2023-03-30T19:03:13.204Z,12.26
2023-03-30T19:05:42.003Z,12.21
2023-03-30T19:08:12.125Z,12.12
2023-03-30T19:10:41.948Z,12.17
2023-03-30T19:13:14.818Z,12.04
2023-03-30T19:15:43.305Z,12.02
2023-03-30T19:18:11.536Z,11.96
2023-03-30T19:20:41.450Z,11.92
2023-03-30T19:23:10.691Z,11.88
2023-03-30T19:25:38.618Z,11.87
2023-03-30T19:28:07.353Z,11.75
2023-03-30T19:30:39.523Z,11.77
2023-03-30T19:33:09.984Z,11.86
2023-03-30T19:35:40.796Z,11.82
2023-03-30T19:38:08.759Z,11.87
2023-03-30T19:40:37.879Z,11.82
2023-03-30T19:43:05.824Z,11.77
2023-03-30T19:45:33.873Z,11.83
2023-03-30T19:48:03.181Z,11.76
2023-03-30T19:50:31.757Z,11.76
2023-03-30T19:52:59.807Z,11.76
2023-03-30T19:55:27.915Z,11.69
2023-03-30T19:57:55.857Z,11.56
2023-03-30T20:00:24.075Z,11.54
2023-03-30T20:02:53.485Z,11.46
2023-03-30T20:05:24.537Z,11.39
2023-03-30T20:07:52.747Z,11.35
2023-03-30T20:10:22.765Z,11.38
2023-03-30T20:12:51.601Z,11.24
2023-03-30T20:15:20.742Z,11.24
2023-03-30T20:17:48.849Z,11.21
2023-03-30T20:20:25.156Z,11.20
2023-03-30T20:22:56.482Z,11.26
2023-03-30T20:25:24.978Z,11.20
2023-03-30T20:27:53.111Z,11.22
2023-03-30T20:30:21.676Z,11.16
2023-03-30T20:33:03.902Z,11.22
2023-03-30T20:35:36.542Z,11.25
2023-03-30T20:38:06.634Z,11.33
2023-03-30T20:40:34.585Z,11.27
2023-03-30T20:43:03.385Z,11.32
2023-03-30T20:45:31.865Z,11.23
2023-03-30T20:48:16.238Z,11.16
2023-03-30T20:50:44.226Z,11.31
2023-03-30T20:53:13.549Z,11.28
2023-03-30T20:55:41.454Z,11.32
2023-03-30T20:58:09.361Z,11.28
2023-03-30T21:00:37.328Z,11.21
2023-03-30T21:03:06.069Z,11.14
2023-03-30T21:05:34.073Z,11.18
2023-03-30T21:08:02.055Z,11.26
2023-03-30T21:10:31.421Z,11.30
2023-03-30T21:12:59.352Z,11.29
2023-03-30T21:15:27.260Z,11.20
2023-03-30T21:17:55.448Z,11.26
2023-03-30T21:20:23.650Z,11.29
2023-03-30T21:22:51.585Z,11.24
2023-03-30T21:25:19.517Z,11.24
2023-03-30T21:27:48.804Z,11.29
2023-03-30T21:30:16.998Z,11.30
2023-03-30T21:32:44.916Z,11.28
2023-03-30T21:35:12.853Z,11.28
2023-03-30T21:37:40.862Z,11.29
2023-03-30T21:40:09.801Z,11.26
2023-03-30T21:42:37.678Z,11.33
2023-03-30T21:45:08.026Z,11.22
2023-03-30T21:47:35.977Z,11.25
2023-03-30T21:50:04.387Z,11.24
2023-03-30T21:52:33.509Z,11.20
2023-03-30T21:55:01.414Z,11.22
2023-03-30T21:57:30.178Z,11.22
2023-03-30T21:59:58.139Z,11.22
2023-03-30T22:02:27.527Z,11.24
2023-03-30T22:04:55.561Z,11.25
2023-03-30T22:07:23.536Z,11.25
2023-03-30T22:09:51.445Z,11.27
2023-03-30T22:12:20.576Z,11.30
2023-03-30T22:14:48.495Z,11.30
2023-03-30T22:17:18.729Z,11.29
2023-03-30T22:19:51.960Z,11.30
2023-03-30T22:22:19.855Z,11.32
2023-03-30T22:24:47.769Z,11.33
2023-03-30T22:27:16.386Z,11.35
2023-03-30T22:29:44.290Z,11.42
2023-03-30T22:32:12.247Z,11.39
2023-03-30T22:34:41.021Z,11.42
2023-03-30T22:37:10.316Z,11.40
2023-03-30T22:39:39.159Z,11.40
2023-03-30T22:42:07.183Z,11.38
2023-03-30T22:44:35.100Z,11.40
2023-03-30T22:47:03.087Z,11.39
2023-03-30T22:49:31.185Z,11.39
2023-03-30T22:52:02.305Z,11.39
2023-03-30T22:54:31.831Z,11.36
2023-03-30T22:57:00.141Z,11.36
2023-03-30T22:59:28.208Z,11.38
2023-03-30T23:01:56.079Z,11.36
2023-03-30T23:04:24.755Z,11.34
2023-03-30T23:06:54.855Z,11.35
2023-03-30T23:09:22.967Z,11.30
2023-03-30T23:11:53.713Z,11.30
2023-03-30T23:14:21.878Z,11.28
2023-03-30T23:16:52.004Z,11.20
2023-03-30T23:19:20.006Z,11.18
2023-03-30T23:21:47.960Z,11.21
2023-03-30T23:24:16.096Z,11.19
2023-03-30T23:26:44.073Z,11.21
2023-03-30T23:29:13.356Z,11.20
2023-03-30T23:31:41.263Z,11.24
2023-03-30T23:34:11.843Z,11.14
2023-03-30T23:36:39.727Z,11.16
2023-03-30T23:39:09.285Z,11.18
2023-03-30T23:41:37.329Z,11.17
2023-03-30T23:44:05.458Z,11.17
2023-03-30T23:46:35.327Z,11.17
2023-03-30T23:49:03.659Z,11.15
2023-03-30T23:51:31.608Z,11.19
2023-03-30T23:54:00.157Z,11.21
2023-03-30T23:56:29.999Z,11.16
2023-03-30T23:58:59.142Z,11.14
